Nashwauk, Minnesota
Current Conditions -  °F | °C
As of 3:53 PM on Monday 20 Oct 2014 (Local Time) from KHIB Reporting Station
Overcast Overcast  
Wind Chill: 44°   Ceiling: 2500
Heat Index: 49°   Visibility: 10mi
Dew Point: 36°   Wind: 12mph
Humidity: 61%   Direction: 340°NNW
Pressure: 30.03"   Gusts: NA
Location:  47.38°N, 93.17°W
Report Text: KHIB 202053Z AUTO 34010KT 10SM OVC025 09/02 A3003 RMK AO2 SLP180 T00940022 53004
Loading
Personal Weather Stations






























Interactive Weather Map
Tropical Storm Tracking
New forecast layout! Learn more

10-Day Weather Forecast

Advertisements
Track Severe Weather on mobile